Wednesday, August 15, 2018, 11:51 PM EDT
Back to Local

KMFV, Melfa / Accomack Airport

Location: Melfa, VA, United States Lat: 37.65
Local Time: 11:51 PM EDT ( 3:51 GMT) Lon: -75.767
Time Zone: US/Eastern Elev: 49 ft

Show me the last for .
Show Decoded

2018-08-15 23:35 METAR KMFV 160335Z AUTO 19004KT 10SM CLR 23/22 A3007 RMK AO2 T02310221 =
2018-08-15 23:15 METAR KMFV 160315Z AUTO 19004KT 10SM CLR 23/22 A3007 RMK AO2 T02320222 =
2018-08-15 22:55 METAR KMFV 160255Z AUTO 19003KT 10SM CLR 23/22 A3007 RMK AO2 T02340223 =
2018-08-15 22:35 METAR KMFV 160235Z AUTO 00000KT 10SM CLR 24/22 A3006 RMK AO2 T02350221 =
2018-08-15 22:15 METAR KMFV 160215Z AUTO 18003KT 10SM CLR 24/22 A3006 RMK AO2 T02360222 =
2018-08-15 21:55 METAR KMFV 160155Z AUTO 00000KT 10SM CLR 24/22 A3006 RMK AO2 T02400223 =
2018-08-15 21:35 METAR KMFV 160135Z AUTO 18005KT 10SM CLR 24/22 A3006 RMK AO2 T02360224 =
2018-08-15 21:15 METAR KMFV 160115Z AUTO 00000KT 10SM CLR 24/23 A3006 RMK AO2 T02430228 =
2018-08-15 20:55 METAR KMFV 160055Z AUTO 00000KT 10SM CLR 25/22 A3005 RMK AO2 T02510221 =
2018-08-15 20:35 METAR KMFV 160035Z AUTO 19004KT 10SM CLR 25/23 A3004 RMK AO2 T02450230 =
2018-08-15 20:15 METAR KMFV 160015Z AUTO 00000KT 10SM CLR 25/24 A3004 RMK AO2 T02460235 =
2018-08-15 19:55 METAR KMFV 152355Z AUTO 00000KT 10SM CLR 26/24 A3004 RMK AO2 T02550237 10308
                 20255 =
2018-08-15 19:35 METAR KMFV 152335Z AUTO 00000KT 10SM CLR 26/23 A3003 RMK AO2 T02600234 =
2018-08-15 19:15 METAR KMFV 152315Z AUTO 00000KT 10SM CLR 28/23 A3003 RMK AO2 T02760233 =
2018-08-15 18:55 METAR KMFV 152255Z AUTO 00000KT 10SM CLR 29/22 A3002 RMK AO2 T02940221 =
2018-08-15 18:35 METAR KMFV 152235Z AUTO 26003KT 10SM CLR 30/22 A3002 RMK AO2 T02960221 =
2018-08-15 18:15 METAR KMFV 152215Z AUTO 27003KT 10SM CLR 30/21 A3002 RMK AO2 T03000214 =
2018-08-15 17:55 METAR KMFV 152155Z AUTO 28003KT 10SM CLR 30/21 A3002 RMK AO2 T02950213 =
2018-08-15 17:35 METAR KMFV 152135Z AUTO 29006KT 10SM CLR 30/21 A3002 RMK AO2 T03010208 =
2018-08-15 17:15 METAR KMFV 152115Z AUTO 27004KT 10SM CLR 30/21 A3002 RMK AO2 T03040206 =
2018-08-15 16:55 METAR KMFV 152055Z AUTO 29008KT 10SM CLR 30/20 A3002 RMK AO2 T03040204 =
2018-08-15 16:35 METAR KMFV 152035Z AUTO 28008KT 10SM CLR 30/20 A3002 RMK AO2 T03040201 =
2018-08-15 16:15 METAR KMFV 152015Z AUTO 30005KT 10SM CLR 30/20 A3001 RMK AO2 T03030200 =
2018-08-15 15:55 METAR KMFV 151955Z AUTO 31008KT 10SM CLR 30/20 A3001 RMK AO2 T03040204 =
2018-08-15 15:35 METAR KMFV 151935Z AUTO 29010KT 10SM CLR 30/20 A3002 RMK AO2 T03030202 =
2018-08-15 15:15 METAR KMFV 151915Z AUTO 27008KT 10SM CLR 30/21 A3002 RMK AO2 T03040205 =
2018-08-15 14:55 METAR KMFV 151855Z AUTO 29008KT 10SM CLR 30/20 A3003 RMK AO2 T03000197 =
2018-08-15 14:35 METAR KMFV 151835Z AUTO 29008KT 10SM CLR 31/21 A3003 RMK AO2 T03060205 =
2018-08-15 14:15 METAR KMFV 151815Z AUTO 28008KT 10SM CLR 30/20 A3003 RMK AO2 T03020204 =
2018-08-15 13:55 METAR KMFV 151755Z AUTO 26005KT 10SM CLR 31/22 A3003 RMK AO2 T03060215 10308
                 20240 =
2018-08-15 13:35 METAR KMFV 151735Z AUTO 28007KT 10SM CLR 30/20 A3004 RMK AO2 T03010203 =
2018-08-15 13:15 METAR KMFV 151715Z AUTO 28009KT 10SM CLR 30/21 A3004 RMK AO2 T02990205 =
2018-08-15 12:55 METAR KMFV 151655Z AUTO 29009KT 10SM CLR 30/20 A3004 RMK AO2 T02960202 =
2018-08-15 12:35 METAR KMFV 151635Z AUTO 28005G14KT 10SM CLR 30/20 A3005 RMK AO2 T03000204 =
2018-08-15 12:15 METAR KMFV 151615Z AUTO 28008KT 10SM CLR 29/20 A3005 RMK AO2 T02940198 =
2018-08-15 11:55 METAR KMFV 151555Z AUTO 30009KT 10SM CLR 29/20 A3005 RMK AO2 T02910197 =
2018-08-15 11:35 METAR KMFV 151535Z AUTO 28008KT 10SM CLR 29/20 A3005 RMK AO2 T02930200 =
2018-08-15 11:15 METAR KMFV 151515Z AUTO 28008KT 10SM CLR 29/20 A3005 RMK AO2 T02900195 =
2018-08-15 10:55 METAR KMFV 151455Z AUTO 28007KT 10SM CLR 29/20 A3005 RMK AO2 T02890196 =
2018-08-15 10:35 METAR KMFV 151435Z AUTO 29009KT 10SM CLR 29/19 A3004 RMK AO2 T02880192 =
2018-08-15 10:15 METAR KMFV 151415Z AUTO 27007KT 10SM CLR 29/20 A3004 RMK AO2 T02870199 =
2018-08-15 09:55 METAR KMFV 151355Z AUTO 29006KT 10SM CLR 28/20 A3003 RMK AO2 T02830202 =
2018-08-15 09:35 METAR KMFV 151335Z AUTO 30006KT 10SM CLR 28/21 A3002 RMK AO2 T02790213 =
2018-08-15 09:15 METAR KMFV 151315Z AUTO 28007KT 10SM CLR 28/22 A3003 RMK AO2 T02750218 =
2018-08-15 08:55 METAR KMFV 151255Z AUTO 29004KT 10SM CLR 27/23 A3003 RMK AO2 LTG DSNT E
                 T02740225 =
2018-08-15 08:35 METAR KMFV 151235Z AUTO 27003KT 10SM CLR 27/23 A3003 RMK AO2 T02690225 =
2018-08-15 08:15 METAR KMFV 151215Z AUTO 00000KT 10SM CLR 26/22 A3002 RMK AO2 T02580223 =
2018-08-15 07:55 METAR KMFV 151155Z AUTO 00000KT 10SM CLR 24/22 A3002 RMK AO2 T02400221 10240
                 20200 =
2018-08-15 07:35 METAR KMFV 151135Z AUTO 00000KT 10SM CLR 23/22 A3001 RMK AO2 T02280217 =
2018-08-15 07:15 METAR KMFV 151115Z AUTO 26003KT 10SM CLR 22/21 A3000 RMK AO2 T02150207 =
2018-08-15 06:55 METAR KMFV 151055Z AUTO 00000KT 10SM CLR 21/20 A2999 RMK AO2 T02070202 =
2018-08-15 06:35 METAR KMFV 151035Z AUTO 23003KT 7SM CLR 20/20 A2999 RMK AO2 T02040201 =
2018-08-15 06:15 METAR KMFV 151015Z AUTO 23004KT 7SM CLR 20/20 A2998 RMK AO2 T02010198 =
2018-08-15 05:55 METAR KMFV 150955Z AUTO 00000KT 10SM CLR 20/20 A2998 RMK AO2 T02020200 =
2018-08-15 05:35 METAR KMFV 150935Z AUTO 00000KT 10SM CLR 21/20 A2997 RMK AO2 T02050200 =
2018-08-15 05:15 METAR KMFV 150915Z AUTO 00000KT 10SM CLR 21/21 A2997 RMK AO2 T02100206 =
2018-08-15 04:55 METAR KMFV 150855Z AUTO 00000KT 10SM SCT120 21/21 A2996 RMK AO2 T02100205 =
2018-08-15 04:35 METAR KMFV 150835Z AUTO 00000KT 10SM CLR 21/21 A2996 RMK AO2 T02110205 =
2018-08-15 04:15 METAR KMFV 150815Z AUTO 26003KT 10SM CLR 21/21 A2996 RMK AO2 T02110206 =
2018-08-15 03:55 METAR KMFV 150755Z AUTO 26004KT 10SM CLR 21/20 A2996 RMK AO2 T02100204 =
2018-08-15 03:35 METAR KMFV 150735Z AUTO 28003KT 10SM CLR 22/21 A2997 RMK AO2 LTG DSNT E
                 T02190208 =
2018-08-15 03:15 METAR KMFV 150715Z AUTO 30003KT 10SM CLR 23/21 A2997 RMK AO2 T02290207 =
2018-08-15 02:55 METAR KMFV 150655Z AUTO 30005KT 10SM CLR 22/21 A2997 RMK AO2 T02240209 =
2018-08-15 02:35 METAR KMFV 150635Z AUTO 29005KT 10SM CLR 22/21 A2997 RMK AO2 T02210213 =
2018-08-15 02:15 METAR KMFV 150615Z AUTO 28004KT 10SM CLR 22/22 A2997 RMK AO2 T02240216 =
2018-08-15 01:55 METAR KMFV 150555Z AUTO 00000KT 10SM CLR 23/21 A2998 RMK AO2 T02260214 10240
                 20217 =
2018-08-15 01:35 METAR KMFV 150535Z AUTO 26003KT 10SM CLR 22/22 A2998 RMK AO2 T02240215 =
2018-08-15 01:15 METAR KMFV 150515Z AUTO 00000KT 10SM CLR 22/21 A2999 RMK AO2 LTG DSNT E
                 T02210211 =
2018-08-15 00:55 METAR KMFV 150455Z AUTO 27003KT 10SM TS CLR 23/21 A2999 RMK AO2 LTG DSNT N THRU
                 E T02250210 402890188 =
2018-08-15 00:35 METAR KMFV 150435Z AUTO 25003KT 10SM CLR 23/21 A2998 RMK AO2 LTG DSNT SE
                 T02250210 =
2018-08-15 00:10 METAR KMFV 150410Z AUTO 23005KT 10SM CLR 22/21 A2998 RMK AO2 LTG DSNT E
                 T02210208 =
2018-08-14 23:55 METAR KMFV 150355Z AUTO 23003KT 10SM CLR 22/21 A2998 RMK AO2 T02190211 =

Support USWX by starting your Amazon purchase here.